Time;durP1;ratioP1;P1;durP2;ratioP2;P2;SDS_P1;SDS_P2;PMS_P1;PMS_P2;Temp;Humidity;BMP_temperature;BMP_pressure;BME280_temperature;BME280_humidity;BME280_pressure;Samples;Min_cycle;Max_cycle;Signal;HPM_P1;HPM_P2
2024/02/09 00:00:17;;;;;;;;;;;;;;;0.31;100.00;99656.45;108338;1255;60240;-73
2024/02/09 00:02:44;;;;;;;;;;;;;;;0.31;100.00;99654.35;108328;1251;75471;-72
2024/02/09 00:05:12;;;;;;;;;;;;;;;0.31;100.00;99655.08;108405;1251;73148;-73
2024/02/09 00:07:39;;;;;;;;;;;;;;;0.33;100.00;99654.73;108302;1252;72484;-73
2024/02/09 00:10:07;;;;;;;;;;;;;;;0.36;100.00;99649.61;108427;1252;60793;-73
2024/02/09 00:12:34;;;;;;;;;;;;;;;0.35;100.00;99654.44;108369;1251;61548;-73
2024/02/09 00:15:06;;;;;;;;;;;;;;;0.36;100.00;99657.30;108385;1251;74453;-73
2024/02/09 00:17:33;;;;;;;;;;;;;;;0.36;100.00;99655.36;108387;1254;72760;-73
2024/02/09 00:20:07;;;;;;;;;;;;;;;0.34;100.00;99658.41;108442;1251;71073;-73
2024/02/09 00:22:37;;;;;;;;;;;;;;;0.34;100.00;99655.98;108412;1251;60997;-73
2024/02/09 00:25:08;;;;;;;;;;;;;;;0.34;100.00;99653.67;108353;1251;61208;-73
2024/02/09 00:27:36;;;;;;;;;;;;;;;0.33;100.00;99646.98;108336;1251;73370;-73
2024/02/09 00:30:05;;;;;;;;;;;;;;;0.32;100.00;99647.39;108353;1255;73306;-73
2024/02/09 00:32:32;;;;;;;;;;;;;;;0.32;100.00;99641.41;108310;1253;71694;-72
2024/02/09 00:34:59;;;;;;;;;;;;;;;0.33;100.00;99642.21;108446;1251;61076;-72
2024/02/09 00:37:27;;;;;;;;;;;;;;;0.33;100.00;99640.67;108365;1251;60967;-72
2024/02/09 00:39:56;;;;;;;;;;;;;;;0.35;100.00;99638.56;108388;1251;75197;-72
2024/02/09 00:42:23;;;;;;;;;;;;;;;0.33;100.00;99634.36;108405;1251;71159;-72
2024/02/09 00:44:50;;;;;;;;;;;;;;;0.31;100.00;99628.40;108361;1251;73042;-72
2024/02/09 00:47:17;;;;;;;;;;;;;;;0.31;100.00;99623.19;108313;1251;61016;-72
2024/02/09 00:49:45;;;;;;;;;;;;;;;0.30;100.00;99623.09;108360;1251;61301;-73
2024/02/09 00:52:12;;;;;;;;;;;;;;;0.28;100.00;99619.89;108379;1251;74440;-72
2024/02/09 00:54:39;;;;;;;;;;;;;;;0.25;100.00;99617.81;108385;1251;72861;-72
2024/02/09 00:57:06;;;;;;;;;;;;;;;0.23;100.00;99615.12;108342;1251;72529;-71
2024/02/09 00:59:33;;;;;;;;;;;;;;;0.21;100.00;99612.13;108442;1251;61259;-71
2024/02/09 01:02:01;;;;;;;;;;;;;;;0.22;100.00;99612.77;108340;1251;61075;-74
2024/02/09 01:04:35;;;;;;;;;;;;;;;0.22;100.00;99609.67;108416;1251;73607;-73
2024/02/09 01:07:13;;;;;;;;;;;;;;;0.22;100.00;99609.27;108405;1251;72491;-72
2024/02/09 01:09:40;;;;;;;;;;;;;;;0.22;100.00;99606.63;108428;1251;73787;-71
2024/02/09 02:45:42;;;;;;;;;;;;;;;-0.07;100.00;99521.52;85922;1257;10001585;-72
2024/02/09 03:04:42;;;;;;;;;;;;;;;-0.05;100.00;99525.14;107897;1255;60867;-71
2024/02/09 03:07:09;;;;;;;;;;;;;;;-0.08;100.00;99521.62;107873;1256;61242;-71
2024/02/09 03:09:57;;;;;;;;;;;;;;;-0.08;100.00;99512.48;107824;1257;75226;-72
2024/02/09 03:12:28;;;;;;;;;;;;;;;-0.09;100.00;99508.02;107874;1258;72501;-70
2024/02/09 03:14:55;;;;;;;;;;;;;;;-0.11;100.00;99510.46;107938;1257;73106;-71
2024/02/09 03:17:22;;;;;;;;;;;;;;;-0.11;100.00;99512.96;108449;1254;61152;-71
2024/02/09 03:19:49;;;;;;;;;;;;;;;-0.11;100.00;99508.55;108389;1252;61148;-72
2024/02/09 03:22:16;;;;;;;;;;;;;;;-0.11;100.00;99501.04;108197;1255;74759;-71
2024/02/09 03:24:43;;;;;;;;;;;;;;;-0.15;100.00;99500.50;108203;1256;73140;-71
2024/02/09 03:27:10;;;;;;;;;;;;;;;-0.13;100.00;99496.02;108777;1251;73053;-73
2024/02/09 03:29:39;;;;;;;;;;;;;;;-0.13;100.00;99493.59;109365;1251;61160;-72
2024/02/09 03:32:06;;;;;;;;;;;;;;;-0.14;100.00;99484.38;109429;1255;60360;-71
2024/02/09 03:34:33;;;;;;;;;;;;;;;-0.14;100.00;99484.75;109213;1253;74021;-72
2024/02/09 03:37:00;;;;;;;;;;;;;;;-0.14;100.00;99477.53;108124;1251;72954;-69
2024/02/09 03:39:27;;;;;;;;;;;;;;;-0.15;100.00;99476.84;108086;1253;72693;-70
2024/02/09 03:41:54;;;;;;;;;;;;;;;-0.17;100.00;99474.56;108258;1254;61203;-71
2024/02/09 03:44:20;;;;;;;;;;;;;;;-0.19;100.00;99469.62;108254;1251;61193;-71
2024/02/09 03:46:47;;;;;;;;;;;;;;;-0.20;100.00;99464.77;108300;1251;75848;-71
2024/02/09 03:49:14;;;;;;;;;;;;;;;-0.20;100.00;99462.91;108373;1251;72824;-72
2024/02/09 03:51:41;;;;;;;;;;;;;;;-0.21;100.00;99462.67;108349;1256;72986;-70
2024/02/09 03:54:08;;;;;;;;;;;;;;;-0.22;100.00;99459.39;108348;1251;61130;-70
2024/02/09 03:56:35;;;;;;;;;;;;;;;-0.23;100.00;99452.77;108353;1252;61082;-72
2024/02/09 03:59:05;;;;;;;;;;;;;;;-0.24;100.00;99450.42;108287;1256;75538;-72
2024/02/09 04:01:33;;;;;;;;;;;;;;;-0.24;100.00;99449.26;108372;1256;71284;-74
2024/02/09 04:04:00;;;;;;;;;;;;;;;-0.25;100.00;99441.98;108599;1251;71225;-73
2024/02/09 04:06:29;;;;;;;;;;;;;;;-0.26;100.00;99439.21;108416;1252;62476;-73
2024/02/09 04:08:56;;;;;;;;;;;;;;;-0.27;100.00;99441.72;108547;1251;61206;-72
2024/02/09 04:11:23;;;;;;;;;;;;;;;-0.27;100.00;99441.05;108346;1257;75410;-73
2024/02/09 04:13:50;;;;;;;;;;;;;;;-0.27;100.00;99443.75;108340;1251;71406;-72
2024/02/09 04:16:18;;;;;;;;;;;;;;;-0.28;100.00;99442.79;108352;1255;71063;-71
2024/02/09 04:18:46;;;;;;;;;;;;;;;-0.29;100.00;99441.14;108337;1251;61173;-72
2024/02/09 04:21:13;;;;;;;;;;;;;;;-0.30;100.00;99441.66;108407;1251;60977;-72
2024/02/09 04:23:39;;;;;;;;;;;;;;;-0.31;100.00;99449.30;108385;1251;73352;-72
2024/02/09 04:26:06;;;;;;;;;;;;;;;-0.31;100.00;99453.34;108373;1255;72580;-71
2024/02/09 04:28:33;;;;;;;;;;;;;;;-0.52;100.00;99451.11;108405;1255;71408;-71
2024/02/09 04:30:59;;;;;;;;;;;;;;;-0.51;100.00;99449.36;108362;1251;61234;-71
2024/02/09 04:33:26;;;;;;;;;;;;;;;-0.34;100.00;99457.00;108271;1251;61144;-71
2024/02/09 04:35:56;;;;;;;;;;;;;;;-0.31;100.00;99456.02;108456;1255;74795;-71
2024/02/09 04:38:24;;;;;;;;;;;;;;;-0.29;100.00;99454.50;108368;1252;70609;-72
2024/02/09 04:40:51;;;;;;;;;;;;;;;-0.30;100.00;99451.80;108357;1254;73085;-71
2024/02/09 04:43:18;;;;;;;;;;;;;;;-0.31;100.00;99450.19;108390;1256;60921;-73
2024/02/09 04:45:45;;;;;;;;;;;;;;;-0.30;100.00;99450.63;108376;1251;61067;-73
2024/02/09 04:48:12;;;;;;;;;;;;;;;-0.32;100.00;99446.36;108419;1256;74332;-72
2024/02/09 04:50:40;;;;;;;;;;;;;;;-0.35;100.00;99445.14;108339;1251;71280;-72
2024/02/09 04:53:07;;;;;;;;;;;;;;;-0.39;100.00;99443.11;108406;1253;71533;-72
2024/02/09 04:55:35;;;;;;;;;;;;;;;-0.36;100.00;99438.36;108370;1251;61203;-72
2024/02/09 04:58:03;;;;;;;;;;;;;;;-0.37;100.00;99441.06;108396;1251;61084;-73
2024/02/09 05:00:30;;;;;;;;;;;;;;;-0.38;100.00;99439.27;108314;1251;74471;-73
2024/02/09 05:02:57;;;;;;;;;;;;;;;-0.40;100.00;99438.30;108449;1256;72621;-71
2024/02/09 05:05:25;;;;;;;;;;;;;;;-0.41;100.00;99439.05;108402;1251;72566;-72
2024/02/09 05:07:53;;;;;;;;;;;;;;;-0.43;100.00;99437.56;108427;1251;61267;-71
2024/02/09 05:10:21;;;;;;;;;;;;;;;-0.44;100.00;99432.60;108380;1251;61176;-73
2024/02/09 05:12:47;;;;;;;;;;;;;;;-0.44;100.00;99430.60;108544;1251;73545;-71
2024/02/09 05:15:16;;;;;;;;;;;;;;;-0.46;100.00;99429.23;108401;1251;73076;-71
2024/02/09 05:17:43;;;;;;;;;;;;;;;-0.47;100.00;99428.36;108478;1255;71245;-71
2024/02/09 05:20:13;;;;;;;;;;;;;;;-0.48;100.00;99429.65;108495;1252;61224;-72
2024/02/09 05:22:40;;;;;;;;;;;;;;;-0.47;100.00;99429.89;108365;1255;61253;-71
2024/02/09 05:25:07;;;;;;;;;;;;;;;-0.48;100.00;99431.34;108303;1251;75683;-74
2024/02/09 05:27:34;;;;;;;;;;;;;;;-0.48;100.00;99433.05;108365;1251;71805;-74
2024/02/09 05:30:02;;;;;;;;;;;;;;;-0.50;100.00;99428.50;108435;1257;73219;-74
2024/02/09 05:32:32;;;;;;;;;;;;;;;-0.48;100.00;99435.15;108354;1251;61182;-73
2024/02/09 05:34:59;;;;;;;;;;;;;;;-0.49;100.00;99433.09;108382;1253;61107;-74
2024/02/09 05:37:26;;;;;;;;;;;;;;;-0.51;100.00;99431.24;108386;1253;75195;-73
2024/02/09 05:39:56;;;;;;;;;;;;;;;-0.53;100.00;99427.94;108391;1251;73226;-73
2024/02/09 05:42:23;;;;;;;;;;;;;;;-0.56;100.00;99428.86;108317;1251;73302;-73
2024/02/09 05:44:51;;;;;;;;;;;;;;;-0.56;100.00;99426.95;108378;1251;61223;-73
2024/02/09 05:47:30;;;;;;;;;;;;;;;-0.55;100.00;99432.29;108344;1252;61116;-74
2024/02/09 05:49:59;;;;;;;;;;;;;;;-0.54;100.00;99432.39;108455;1254;74661;-73
2024/02/09 05:52:27;;;;;;;;;;;;;;;-0.55;100.00;99432.16;108392;1251;70942;-73
2024/02/09 05:54:54;;;;;;;;;;;;;;;-0.55;100.00;99425.47;108672;1251;72854;-74
2024/02/09 05:57:24;;;;;;;;;;;;;;;-0.55;100.00;99426.52;108463;1251;61210;-73
2024/02/09 05:59:51;;;;;;;;;;;;;;;-0.54;100.00;99425.73;108429;1251;61311;-73
2024/02/09 06:02:18;;;;;;;;;;;;;;;-0.53;100.00;99433.28;108407;1251;75220;-73
2024/02/09 06:04:45;;;;;;;;;;;;;;;-0.53;100.00;99434.93;108431;1251;72629;-73
2024/02/09 06:07:11;;;;;;;;;;;;;;;-0.53;100.00;99435.41;108335;1256;72442;-73
2024/02/09 06:09:39;;;;;;;;;;;;;;;-0.52;100.00;99431.49;108445;1251;61084;-74
2024/02/09 06:12:06;;;;;;;;;;;;;;;-0.51;100.00;99431.33;108404;1251;61149;-72
2024/02/09 06:14:33;;;;;;;;;;;;;;;-0.50;100.00;99430.52;108403;1251;73703;-72
2024/02/09 06:17:00;;;;;;;;;;;;;;;-0.48;100.00;99427.80;108417;1251;71609;-72
2024/02/09 06:19:26;;;;;;;;;;;;;;;-0.45;100.00;99424.59;108359;1251;72694;-73
2024/02/09 06:21:55;;;;;;;;;;;;;;;-0.41;100.00;99424.16;108434;1251;61314;-72
2024/02/09 06:24:24;;;;;;;;;;;;;;;-0.37;100.00;99427.67;108430;1251;61095;-71
2024/02/09 06:26:52;;;;;;;;;;;;;;;-0.37;100.00;99425.65;108370;1251;74590;-71
2024/02/09 06:29:18;;;;;;;;;;;;;;;-0.36;100.00;99423.64;108545;1251;72122;-71
2024/02/09 06:31:45;;;;;;;;;;;;;;;-0.34;100.00;99424.59;108296;1251;73640;-72
2024/02/09 06:34:13;;;;;;;;;;;;;;;-0.33;100.00;99425.48;108519;1251;61116;-75
2024/02/09 06:36:40;;;;;;;;;;;;;;;-0.33;100.00;99421.96;108467;1251;61243;-72
2024/02/09 06:39:15;;;;;;;;;;;;;;;-0.32;100.00;99425.45;108364;1254;75249;-70
2024/02/09 06:42:02;;;;;;;;;;;;;;;-0.30;100.00;99430.43;108398;1254;73291;-72
2024/02/09 06:44:30;;;;;;;;;;;;;;;-0.29;100.00;99424.80;108348;1251;73188;-70
2024/02/09 06:46:58;;;;;;;;;;;;;;;-0.29;100.00;99423.05;108415;1251;61268;-71
2024/02/09 06:49:28;;;;;;;;;;;;;;;-0.30;100.00;99427.05;108467;1251;61099;-72
2024/02/09 06:51:55;;;;;;;;;;;;;;;-0.33;100.00;99428.45;108420;1251;72811;-72
2024/02/09 06:54:22;;;;;;;;;;;;;;;-0.34;100.00;99426.31;108409;1251;72593;-71
2024/02/09 06:56:53;;;;;;;;;;;;;;;-0.33;100.00;99427.64;108393;1251;72700;-71
2024/02/09 06:59:22;;;;;;;;;;;;;;;-0.33;100.00;99421.20;108436;1251;61219;-74
2024/02/09 07:01:49;;;;;;;;;;;;;;;-0.35;100.00;99414.59;108409;1251;61227;-73
2024/02/09 07:04:18;;;;;;;;;;;;;;;-0.33;100.00;99413.29;108456;1251;73720;-71
2024/02/09 07:06:47;;;;;;;;;;;;;;;-0.34;100.00;99408.60;108366;1251;71450;-70
2024/02/09 07:09:17;;;;;;;;;;;;;;;-0.35;100.00;99411.44;108392;1251;71696;-73
2024/02/09 07:12:03;;;;;;;;;;;;;;;-0.34;100.00;99411.51;108341;1251;61231;-72
2024/02/09 07:14:31;;;;;;;;;;;;;;;-0.31;100.00;99406.04;108654;1251;61307;-70
2024/02/09 07:16:57;;;;;;;;;;;;;;;-0.31;100.00;99410.40;108350;1251;74601;-70
2024/02/09 07:19:24;;;;;;;;;;;;;;;-0.28;100.00;99416.02;108595;1251;71958;-71
2024/02/09 07:21:51;;;;;;;;;;;;;;;-0.24;100.00;99416.52;108351;1255;72761;-70
2024/02/09 07:24:18;;;;;;;;;;;;;;;-0.21;100.00;99414.23;108449;1251;61231;-71
2024/02/09 07:26:46;;;;;;;;;;;;;;;-0.23;100.00;99410.46;108460;1251;61120;-71
2024/02/09 07:29:12;;;;;;;;;;;;;;;-0.27;100.00;99404.45;108398;1251;74705;-72
2024/02/09 07:31:39;;;;;;;;;;;;;;;-0.26;100.00;99404.95;108404;1251;73769;-71
2024/02/09 07:34:11;;;;;;;;;;;;;;;-0.25;100.00;99406.15;108343;1251;73440;-71
2024/02/09 07:36:39;;;;;;;;;;;;;;;-0.22;100.00;99406.13;108372;1251;61984;-71
2024/02/09 07:39:07;;;;;;;;;;;;;;;-0.16;100.00;99399.27;108387;1251;59869;-71
2024/02/09 07:41:35;;;;;;;;;;;;;;;-0.14;100.00;99399.80;108393;1251;74567;-71
2024/02/09 07:44:03;;;;;;;;;;;;;;;-0.13;100.00;99396.48;108393;1251;72067;-70
2024/02/09 07:46:31;;;;;;;;;;;;;;;-0.08;100.00;99391.59;108292;1251;71649;-72
2024/02/09 07:48:58;;;;;;;;;;;;;;;-0.03;100.00;99389.97;108370;1253;61480;-70
2024/02/09 07:51:25;;;;;;;;;;;;;;;0.02;100.00;99379.51;108469;1251;61103;-72
2024/02/09 07:53:54;;;;;;;;;;;;;;;0.02;100.00;99376.36;108380;1251;74476;-70
2024/02/09 07:56:24;;;;;;;;;;;;;;;0.03;100.00;99380.59;108514;1251;72602;-71
2024/02/09 07:58:52;;;;;;;;;;;;;;;0.08;100.00;99378.95;108386;1251;72771;-71
2024/02/09 08:01:21;;;;;;;;;;;;;;;0.10;100.00;99378.98;108421;1251;61119;-70
2024/02/09 08:03:49;;;;;;;;;;;;;;;0.12;100.00;99384.21;108387;1251;61167;-71
2024/02/09 08:06:16;;;;;;;;;;;;;;;0.15;100.00;99385.36;108427;1251;74439;-71
2024/02/09 08:08:44;;;;;;;;;;;;;;;0.21;100.00;99385.50;108334;1251;72581;-72
2024/02/09 08:11:11;;;;;;;;;;;;;;;0.24;100.00;99391.05;108410;1251;72849;-71
2024/02/09 08:13:39;;;;;;;;;;;;;;;0.27;100.00;99390.41;108381;1251;61196;-71
2024/02/09 08:16:10;;;;;;;;;;;;;;;0.29;100.00;99390.87;108412;1251;61108;-71
2024/02/09 08:18:37;;;;;;;;;;;;;;;0.34;100.00;99387.95;108341;1251;74679;-70
2024/02/09 08:21:04;;;;;;;;;;;;;;;0.36;100.00;99393.34;108391;1256;72834;-70
2024/02/09 08:23:31;;;;;;;;;;;;;;;0.37;100.00;99397.93;108423;1251;73812;-71
2024/02/09 08:25:58;;;;;;;;;;;;;;;0.38;100.00;99405.11;108413;1251;61222;-71
2024/02/09 08:28:25;;;;;;;;;;;;;;;0.41;100.00;99403.60;108372;1251;61151;-71
2024/02/09 08:30:52;;;;;;;;;;;;;;;0.42;100.00;99408.10;108384;1251;74257;-73
2024/02/09 08:33:19;;;;;;;;;;;;;;;0.43;100.00;99410.45;108385;1251;72035;-72
2024/02/09 08:35:46;;;;;;;;;;;;;;;0.43;100.00;99408.42;108396;1251;73742;-71
2024/02/09 08:38:13;;;;;;;;;;;;;;;0.47;100.00;99400.05;108477;1251;61141;-70
2024/02/09 08:40:40;;;;;;;;;;;;;;;0.51;100.00;99408.77;108403;1251;61231;-71
2024/02/09 08:43:10;;;;;;;;;;;;;;;0.56;100.00;99409.18;108389;1251;73547;-71
2024/02/09 08:45:37;;;;;;;;;;;;;;;0.56;100.00;99405.81;108442;1251;73082;-71
2024/02/09 08:48:04;;;;;;;;;;;;;;;0.55;100.00;99405.95;108411;1256;72745;-72
2024/02/09 08:50:31;;;;;;;;;;;;;;;0.55;100.00;99406.39;108412;1251;61099;-71
2024/02/09 08:52:58;;;;;;;;;;;;;;;0.53;100.00;99413.08;108332;1251;61310;-71
2024/02/09 08:55:26;;;;;;;;;;;;;;;0.47;100.00;99408.83;108339;1251;74575;-71
2024/02/09 08:57:53;;;;;;;;;;;;;;;0.48;100.00;99404.65;108334;1251;72887;-71
2024/02/09 09:00:20;;;;;;;;;;;;;;;0.51;100.00;99401.21;108332;1251;73548;-71
2024/02/09 09:02:47;;;;;;;;;;;;;;;0.55;100.00;99404.36;108317;1251;61818;-72
2024/02/09 09:05:15;;;;;;;;;;;;;;;0.58;100.00;99409.19;108290;1251;61296;-71
2024/02/09 09:07:42;;;;;;;;;;;;;;;0.60;100.00;99407.55;108339;1251;73347;-71
2024/02/09 09:10:09;;;;;;;;;;;;;;;0.61;100.00;99407.50;108362;1251;72807;-71
2024/02/09 09:12:38;;;;;;;;;;;;;;;0.60;100.00;99402.05;108417;1251;72698;-74
2024/02/09 09:15:05;;;;;;;;;;;;;;;0.58;100.00;99404.98;108360;1251;62075;-72
2024/02/09 09:17:32;;;;;;;;;;;;;;;0.60;100.00;99401.68;108384;1251;61112;-71
2024/02/09 09:19:59;;;;;;;;;;;;;;;0.65;100.00;99406.43;108414;1251;74639;-71
2024/02/09 09:22:27;;;;;;;;;;;;;;;0.69;100.00;99414.60;108257;1251;72574;-71
2024/02/09 09:24:54;;;;;;;;;;;;;;;0.78;100.00;99417.04;108354;1251;71601;-71
2024/02/09 09:27:21;;;;;;;;;;;;;;;0.81;100.00;99423.55;108319;1252;61103;-71
2024/02/09 09:29:49;;;;;;;;;;;;;;;0.79;100.00;99418.41;108366;1252;61218;-71
2024/02/09 09:32:19;;;;;;;;;;;;;;;0.79;100.00;99416.62;108327;1251;73542;-72
2024/02/09 09:34:47;;;;;;;;;;;;;;;0.81;100.00;99414.86;108395;1251;74232;-72
2024/02/09 09:37:14;;;;;;;;;;;;;;;0.85;100.00;99405.95;108352;1256;72701;-71
2024/02/09 09:39:40;;;;;;;;;;;;;;;0.92;100.00;99403.45;108279;1251;61090;-72
2024/02/09 09:42:07;;;;;;;;;;;;;;;0.94;100.00;99405.30;108467;1251;59919;-73
2024/02/09 09:44:35;;;;;;;;;;;;;;;0.95;100.00;99412.21;108365;1251;74708;-72
2024/02/09 09:47:02;;;;;;;;;;;;;;;0.97;100.00;99412.73;108325;1251;72915;-73
2024/02/09 09:49:30;;;;;;;;;;;;;;;1.00;100.00;99409.29;108329;1251;72844;-72
2024/02/09 09:51:58;;;;;;;;;;;;;;;1.01;100.00;99408.21;108167;1256;225257;-72
2024/02/09 09:54:26;;;;;;;;;;;;;;;1.00;100.00;99408.67;108369;1251;61291;-73
2024/02/09 09:56:53;;;;;;;;;;;;;;;1.05;100.00;99410.99;108436;1256;73417;-72
2024/02/09 09:59:20;;;;;;;;;;;;;;;1.08;100.00;99408.65;108281;1256;72775;-75
2024/02/09 10:01:48;;;;;;;;;;;;;;;1.06;100.00;99411.02;108421;1251;73607;-72
2024/02/09 10:04:15;;;;;;;;;;;;;;;1.04;100.00;99407.45;108452;1251;61215;-72
2024/02/09 10:06:42;;;;;;;;;;;;;;;1.06;100.00;99408.03;108343;1251;61132;-72
2024/02/09 10:09:12;;;;;;;;;;;;;;;1.05;100.00;99401.81;108322;1251;74766;-73
2024/02/09 10:11:40;;;;;;;;;;;;;;;1.03;100.00;99400.64;108291;1251;72151;-72
2024/02/09 10:14:15;;;;;;;;;;;;;;;1.02;100.00;99402.77;108323;1251;71468;-72
2024/02/09 10:16:44;;;;;;;;;;;;;;;1.04;100.00;99406.23;108397;1251;62094;-71
2024/02/09 10:19:13;;;;;;;;;;;;;;;1.09;100.00;99408.85;108338;1251;61017;-74
2024/02/09 10:21:40;;;;;;;;;;;;;;;1.12;100.00;99409.56;108433;1252;72993;-72
2024/02/09 10:24:19;;;;;;;;;;;;;;;1.12;100.00;99409.77;108425;1251;72602;-72
2024/02/09 10:26:46;;;;;;;;;;;;;;;1.12;100.00;99412.08;108378;1251;72502;-71
2024/02/09 10:29:14;;;;;;;;;;;;;;;1.09;100.00;99414.06;108322;1251;61148;-73
2024/02/09 10:31:41;;;;;;;;;;;;;;;1.11;100.00;99418.16;108268;1251;61077;-73
2024/02/09 10:34:08;;;;;;;;;;;;;;;1.18;100.00;99415.13;108407;1251;73647;-73
2024/02/09 10:36:35;;;;;;;;;;;;;;;1.18;100.00;99413.61;108684;1251;72786;-72
2024/02/09 10:39:03;;;;;;;;;;;;;;;1.17;100.00;99418.16;108221;1251;72561;-73
2024/02/09 10:41:31;;;;;;;;;;;;;;;1.18;100.00;99416.93;108383;1251;61652;-74
2024/02/09 10:43:58;;;;;;;;;;;;;;;1.21;100.00;99422.10;108363;1251;61148;-72
2024/02/09 10:46:26;;;;;;;;;;;;;;;1.24;100.00;99430.27;108376;1251;75443;-72
2024/02/09 10:48:54;;;;;;;;;;;;;;;1.28;100.00;99428.53;108414;1251;71984;-72
2024/02/09 10:51:27;;;;;;;;;;;;;;;1.32;100.00;99426.91;108445;1251;74115;-73
2024/02/09 10:54:01;;;;;;;;;;;;;;;1.34;100.00;99426.23;108432;1251;61084;-71
2024/02/09 10:56:28;;;;;;;;;;;;;;;1.37;100.00;99426.58;108392;1251;61057;-72
2024/02/09 10:58:56;;;;;;;;;;;;;;;1.40;100.00;99423.27;108332;1251;72510;-72
2024/02/09 11:01:24;;;;;;;;;;;;;;;1.39;100.00;99421.45;108455;1251;72814;-72
2024/02/09 11:03:51;;;;;;;;;;;;;;;1.37;100.00;99421.94;108297;1251;72727;-72
2024/02/09 11:06:18;;;;;;;;;;;;;;;1.32;100.00;99420.29;108314;1251;62130;-73
2024/02/09 11:08:47;;;;;;;;;;;;;;;1.35;100.00;99416.73;108387;1251;61136;-73
2024/02/09 11:11:14;;;;;;;;;;;;;;;1.40;100.00;99416.43;108444;1251;73419;-72
2024/02/09 11:13:41;;;;;;;;;;;;;;;1.45;100.00;99416.96;108410;1251;72776;-72
2024/02/09 11:16:08;;;;;;;;;;;;;;;1.47;100.00;99413.56;108354;1251;74099;-72
2024/02/09 11:18:35;;;;;;;;;;;;;;;1.49;100.00;99404.23;108401;1251;61172;-72
2024/02/09 11:21:06;;;;;;;;;;;;;;;1.54;100.00;99396.10;108370;1256;61073;-71
2024/02/09 11:23:37;;;;;;;;;;;;;;;1.53;100.00;99394.60;108405;1251;75992;-72
2024/02/09 11:26:08;;;;;;;;;;;;;;;1.55;100.00;99398.11;108513;1251;72696;-73
2024/02/09 11:28:35;;;;;;;;;;;;;;;1.56;100.00;99408.57;108330;1251;72631;-73
2024/02/09 11:31:02;;;;;;;;;;;;;;;1.57;100.00;99412.92;108394;1251;61221;-74
2024/02/09 11:33:29;;;;;;;;;;;;;;;1.58;100.00;99412.71;108274;1251;61416;-72
2024/02/09 11:35:58;;;;;;;;;;;;;;;1.58;100.00;99411.50;108404;1251;73302;-72
2024/02/09 11:38:25;;;;;;;;;;;;;;;1.61;100.00;99411.21;108473;1251;72751;-72
2024/02/09 11:40:52;;;;;;;;;;;;;;;1.63;100.00;99407.20;108383;1251;72492;-71
2024/02/09 11:43:19;;;;;;;;;;;;;;;1.69;100.00;99415.83;108444;1251;61361;-71
2024/02/09 11:45:46;;;;;;;;;;;;;;;1.69;100.00;99420.30;108396;1251;61102;-73
2024/02/09 11:48:17;;;;;;;;;;;;;;;1.66;100.00;99416.12;108439;1251;73677;-72
2024/02/09 11:50:44;;;;;;;;;;;;;;;1.62;100.00;99409.34;108387;1251;71496;-71
2024/02/09 11:53:11;;;;;;;;;;;;;;;1.56;100.00;99405.42;108151;1258;72492;-72
2024/02/09 11:55:42;;;;;;;;;;;;;;;1.55;100.00;99412.71;108396;1253;61115;-73
2024/02/09 11:58:10;;;;;;;;;;;;;;;1.54;100.00;99422.41;108388;1251;61112;-72
2024/02/09 12:00:38;;;;;;;;;;;;;;;1.52;100.00;99426.45;108359;1252;74663;-72
2024/02/09 12:03:05;;;;;;;;;;;;;;;1.47;100.00;99432.56;108360;1254;72610;-73
2024/02/09 12:05:32;;;;;;;;;;;;;;;1.46;100.00;99439.27;108472;1253;72522;-72
2024/02/09 12:07:59;;;;;;;;;;;;;;;1.43;100.00;99444.39;108597;1253;61000;-73
2024/02/09 12:10:26;;;;;;;;;;;;;;;1.37;100.00;99443.20;108332;1252;61360;-73
2024/02/09 12:12:53;;;;;;;;;;;;;;;1.35;100.00;99440.25;108437;1251;74661;-71
2024/02/09 12:15:20;;;;;;;;;;;;;;;1.35;100.00;99440.05;108426;1251;73641;-71
2024/02/09 12:17:50;;;;;;;;;;;;;;;1.36;100.00;99446.80;108328;1251;72669;-71
2024/02/09 12:20:17;;;;;;;;;;;;;;;1.38;100.00;99457.24;108334;1251;61317;-71
2024/02/09 12:22:45;;;;;;;;;;;;;;;1.37;100.00;99463.04;108429;1251;61288;-73
2024/02/09 12:25:15;;;;;;;;;;;;;;;1.37;100.00;99471.39;108385;1251;74176;-72
2024/02/09 12:27:42;;;;;;;;;;;;;;;1.36;100.00;99471.02;108283;1251;72582;-72
2024/02/09 12:30:09;;;;;;;;;;;;;;;1.37;100.00;99472.36;108469;1251;73822;-72
2024/02/09 12:32:36;;;;;;;;;;;;;;;1.40;100.00;99477.79;108329;1251;61399;-73
2024/02/09 12:35:04;;;;;;;;;;;;;;;1.44;100.00;99487.38;108477;1251;61425;-72
2024/02/09 12:37:31;;;;;;;;;;;;;;;1.45;100.00;99483.77;108393;1251;75206;-73
2024/02/09 12:39:59;;;;;;;;;;;;;;;1.41;100.00;99475.55;108479;1251;72725;-73
2024/02/09 12:42:31;;;;;;;;;;;;;;;1.37;100.00;99475.45;108396;1251;73639;-71
2024/02/09 12:44:58;;;;;;;;;;;;;;;1.41;100.00;99476.27;108461;1251;60997;-71
2024/02/09 12:47:26;;;;;;;;;;;;;;;1.44;100.00;99478.05;108352;1251;61112;-72
2024/02/09 12:49:54;;;;;;;;;;;;;;;1.46;100.00;99486.10;108385;1251;72406;-73
2024/02/09 12:52:25;;;;;;;;;;;;;;;1.46;100.00;99483.58;108400;1251;71626;-73
2024/02/09 12:54:55;;;;;;;;;;;;;;;1.44;100.00;99480.94;108780;1251;72721;-72
2024/02/09 12:57:22;;;;;;;;;;;;;;;1.42;100.00;99489.74;108387;1251;61436;-73
2024/02/09 12:59:49;;;;;;;;;;;;;;;1.42;100.00;99492.98;108370;1251;61115;-73
2024/02/09 13:02:17;;;;;;;;;;;;;;;1.41;100.00;99491.65;108453;1251;74631;-72
2024/02/09 13:04:44;;;;;;;;;;;;;;;1.41;100.00;99486.06;108304;1251;72518;-72
2024/02/09 13:07:11;;;;;;;;;;;;;;;1.40;100.00;99483.77;108335;1255;72659;-73
2024/02/09 13:09:38;;;;;;;;;;;;;;;1.39;100.00;99487.52;108545;1251;61283;-73
2024/02/09 13:12:06;;;;;;;;;;;;;;;1.43;100.00;99489.70;108545;1251;61330;-73
2024/02/09 13:14:36;;;;;;;;;;;;;;;1.46;100.00;99485.92;108364;1251;74446;-74
2024/02/09 13:17:10;;;;;;;;;;;;;;;1.46;100.00;99483.05;108721;1251;72799;-72
2024/02/09 13:19:37;;;;;;;;;;;;;;;1.45;100.00;99473.59;108488;1256;72571;-71
2024/02/09 13:22:07;;;;;;;;;;;;;;;1.42;100.00;99466.83;108367;1251;61451;-72
2024/02/09 13:24:39;;;;;;;;;;;;;;;1.37;100.00;99465.23;108411;1251;61112;-73
2024/02/09 13:27:06;;;;;;;;;;;;;;;1.30;100.00;99462.36;108327;1251;74394;-73
2024/02/09 13:29:34;;;;;;;;;;;;;;;1.25;100.00;99463.17;108377;1251;71771;-72
2024/02/09 13:32:02;;;;;;;;;;;;;;;1.20;100.00;99464.85;108375;1251;71667;-72
2024/02/09 13:34:30;;;;;;;;;;;;;;;1.13;100.00;99470.65;108448;1251;61256;-74
2024/02/09 13:36:57;;;;;;;;;;;;;;;1.05;100.00;99473.65;108501;1251;60121;-72
2024/02/09 13:39:26;;;;;;;;;;;;;;;1.01;100.00;99482.73;108657;1251;74575;-73
2024/02/09 13:41:53;;;;;;;;;;;;;;;1.00;100.00;99487.39;108481;1251;70998;-73
2024/02/09 13:44:20;;;;;;;;;;;;;;;0.99;100.00;99486.92;108398;1251;72806;-74
2024/02/09 13:46:47;;;;;;;;;;;;;;;0.98;100.00;99491.83;108487;1251;61143;-70
2024/02/09 13:49:14;;;;;;;;;;;;;;;0.95;100.00;99490.65;108445;1251;60238;-72
2024/02/09 13:51:41;;;;;;;;;;;;;;;0.91;100.00;99490.23;108364;1251;73448;-73
2024/02/09 13:54:08;;;;;;;;;;;;;;;0.90;100.00;99490.10;108385;1251;72909;-74
2024/02/09 13:56:37;;;;;;;;;;;;;;;0.89;100.00;99490.27;108443;1251;72896;-73
2024/02/09 13:59:07;;;;;;;;;;;;;;;0.85;100.00;99496.73;108345;1251;61168;-72
2024/02/09 14:01:35;;;;;;;;;;;;;;;0.82;100.00;99495.85;108328;1251;61129;-73
2024/02/09 14:04:04;;;;;;;;;;;;;;;0.80;100.00;99497.38;108393;1251;74588;-72
2024/02/09 14:06:32;;;;;;;;;;;;;;;0.79;100.00;99496.92;108375;1251;72789;-72
2024/02/09 14:09:00;;;;;;;;;;;;;;;0.80;100.00;99496.32;108435;1251;73626;-71
2024/02/09 14:11:27;;;;;;;;;;;;;;;0.79;100.00;99494.88;108351;1253;61497;-71
2024/02/09 14:13:55;;;;;;;;;;;;;;;0.78;100.00;99491.52;108325;1251;61308;-72
2024/02/09 14:16:22;;;;;;;;;;;;;;;0.77;100.00;99494.78;108328;1251;74679;-72
2024/02/09 14:18:51;;;;;;;;;;;;;;;0.75;100.00;99513.23;108465;1251;72676;-73
2024/02/09 14:21:18;;;;;;;;;;;;;;;0.73;100.00;99509.38;108499;1251;73943;-72
2024/02/09 14:23:45;;;;;;;;;;;;;;;0.69;100.00;99507.21;108440;1251;61365;-72
2024/02/09 14:26:15;;;;;;;;;;;;;;;0.66;100.00;99511.63;108424;1251;61202;-75